Latest Weather Observations for Hay Airport

IDN60801

Issued at 5:02 am EST Sunday 19 April 2015 (issued every 30 minutes, with the page automatically refreshed every 10 minutes)

About weather observations | Map of weather stations | Latest weather observations for NSW | Other Formats
Station Details ID: 075019 Name: HAY AIRPORT AWS Lat: -34.54 Lon: 144.83 Height: 92.0 m
Data from the previous 72 hours. | See also: Recent months for locations in New South Wales
Date/Time
EST
Temp
°C
App
Temp
°C
Dew
Point
Rel
Hum
%
Delta-T
°C
Wind Press
QNH
hPa
Press
MSL
hPa
Rain
since 9 am
mm
Dir
 
Spd
km/h
Gust
km/h
Spd
kts
Gust
kts
19/05:00am 11.4 6.4 9.7 89 0.9 SW 26 35 14 19 1021.2 1021.1 4.2
19/04:30am 11.8 7.7 10.0 89 0.9 SW 22 32 12 17 1020.8 1020.7 4.2
19/04:00am 11.9 6.1 9.3 84 1.3 SW 30 39 16 21 1020.4 1020.3 4.2
19/03:30am 12.2 7.0 10.1 87 1.1 SW 28 37 15 20 1019.9 1019.8 4.2
19/03:00am 12.2 7.6 10.9 92 0.7 SW 26 33 14 18 1019.8 1019.7 4.2
19/02:30am 12.1 7.2 11.3 95 0.4 SW 28 37 15 20 1019.8 1019.7 4.2
19/02:00am 12.2 7.5 11.9 98 0.2 SSW 28 39 15 21 1019.6 1019.5 4.2
19/01:38am 12.7 6.5 11.4 92 0.7 SW 35 48 19 26 1019.4 1019.3 4.2
19/01:30am 14.1 9.7 12.8 92 0.7 SW 28 35 15 19 1019.1 1019.0 4.2
19/01:00am 14.5 12.2 13.0 91 0.8 W 17 28 9 15 1018.8 1018.7 4.2
19/12:30am 14.4 11.6 12.6 89 1.0 WNW 19 24 10 13 1018.5 1018.4 4.2
19/12:00am 13.9 11.0 12.3 90 0.9 NW 19 24 10 13 1018.3 1018.2 4.2
 
Date/Time
EST
Temp
°C
App
Temp
°C
Dew
Point
Rel
Hum
%
Delta-T
°C
Wind Press
QNH
hPa
Press
MSL
hPa
Rain
since 9 am
mm
Dir
 
Spd
km/h
Gust
km/h
Spd
kts
Gust
kts
18/11:30pm 13.8 11.0 12.5 92 0.7 NW 19 22 10 12 1018.0 1017.9 4.2
18/11:00pm 13.5 10.6 12.2 92 0.7 NW 19 20 10 11 1017.9 1017.8 4.2
18/10:30pm 13.8 10.9 12.2 90 0.9 NNW 19 22 10 12 1017.8 1017.7 4.2
18/10:00pm 13.5 11.2 11.9 90 0.9 NW 15 17 8 9 1018.0 1017.9 4.2
18/09:30pm 13.5 11.2 11.6 88 1.0 NW 15 17 8 9 1017.7 1017.6 4.2
18/09:00pm 13.2 11.2 11.4 89 1.0 NW 13 15 7 8 1017.4 1017.3 4.2
18/08:30pm 12.9 10.9 11.6 92 0.7 NNW 13 13 7 7 1017.2 1017.1 4.2
18/08:00pm 13.8 11.9 11.7 87 1.1 NW 13 15 7 8 1016.8 1016.6 4.2
18/07:30pm 14.3 12.8 12.0 86 1.2 WNW 11 13 6 7 1016.5 1016.3 4.2
18/07:00pm 14.5 13.1 12.2 86 1.3 WNW 11 13 6 7 1016.4 1016.2 4.2
18/06:30pm 15.3 14.0 12.4 83 1.6 W 11 15 6 8 1015.7 1015.5 4.2
18/06:00pm 16.0 13.6 12.6 80 1.9 W 17 20 9 11 1015.6 1015.4 4.2
18/05:30pm 16.8 14.4 12.5 76 2.4 W 17 24 9 13 1015.4 1015.2 4.2
18/05:00pm 17.1 14.3 13.2 78 2.2 W 20 28 11 15 1015.2 1015.0 4.2
18/04:30pm 16.6 13.8 13.1 80 2.0 W 20 26 11 14 1015.2 1015.0 4.2
18/04:00pm 16.0 12.9 13.5 85 1.4 W 22 28 12 15 1015.1 1014.9 4.2
18/03:30pm 15.9 13.0 13.0 83 1.6 WSW 20 26 11 14 1014.9 1014.7 4.2
18/03:00pm 15.7 13.2 14.1 90 0.9 WSW 20 28 11 15 1014.8 1014.6 4.2
18/02:30pm 15.5 12.9 13.9 90 0.9 WSW 20 28 11 15 1015.0 1014.8 4.2
18/02:00pm 15.4 12.1 14.1 92 0.7 WSW 24 28 13 15 1015.0 1014.8 4.2
18/01:30pm 15.3 12.1 14.3 94 0.6 WSW 24 32 13 17 1014.9 1014.7 4.2
18/01:00pm 15.6 13.1 15.1 97 0.3 WSW 22 28 12 15 1014.8 1014.6 4.0
18/12:30pm 16.0 13.4 15.8 99 0.1 WSW 24 32 13 17 1015.2 1015.0 4.0
18/12:00pm 16.2 13.3 16.0 99 0.1 WSW 26 32 14 17 1015.2 1015.0 3.8
18/11:30am 17.0 15.1 16.8 99 0.1 WSW 22 26 12 14 1015.2 1015.0 3.0
18/11:00am 17.1 16.2 16.9 99 0.1 WSW 17 20 9 11 1015.4 1015.2 2.6
18/10:30am 17.3 16.4 16.8 97 0.3 SW 17 20 9 11 1015.3 1015.1 0.8
18/10:00am 17.5 17.5 17.3 99 0.1 WSW 13 17 7 9 1015.6 1015.4 0.6
18/09:30am 17.3 17.3 17.1 99 0.1 WSW 13 17 7 9 1015.6 1015.4 0.2
18/09:00am 17.3 17.3 17.1 99 0.1 SW 13 19 7 10 1015.5 1015.3 18.2
18/08:30am 17.9 16.6 16.9 94 0.6 WNW 19 26 10 14 1015.4 1015.2 18.2
18/08:00am 18.4 17.4 17.9 97 0.3 NNW 20 24 11 13 1014.8 1014.6 18.2
18/07:30am 18.2 17.7 17.9 98 0.2 N 17 26 9 14 1014.5 1014.3 18.2
18/07:00am 18.1 17.3 17.9 99 0.1 N 19 26 10 14 1014.3 1014.1 18.2
18/06:30am 18.2 17.1 17.7 97 0.3 NNW 20 24 11 13 1014.2 1014.0 17.4
18/06:00am 18.2 16.7 17.7 97 0.3 NNW 22 28 12 15 1014.1 1013.9 17.4
18/05:30am 18.2 16.3 17.7 97 0.3 NNW 24 32 13 17 1013.9 1013.7 17.2
18/05:00am 18.2 16.2 17.4 95 0.5 N 24 32 13 17 1013.8 1013.6 16.8
18/04:30am 18.1 16.5 17.5 96 0.4 N 22 28 12 15 1013.9 1013.7 16.4
18/04:00am 18.4 16.7 17.2 93 0.7 N 22 30 12 16 1013.6 1013.4 16.4
18/03:30am 18.3 16.8 17.7 96 0.4 N 22 30 12 16 1013.9 1013.7 16.2
18/03:00am 18.5 16.3 17.8 96 0.4 N 26 33 14 18 1014.7 1014.5 15.4
18/02:30am 18.4 17.6 17.9 97 0.3 NNE 19 26 10 14 1014.5 1014.3 14.8
18/02:00am 18.4 17.3 17.8 96 0.4 N 20 28 11 15 1014.8 1014.6 14.0
18/01:30am 18.7 16.8 17.7 94 0.6 N 24 30 13 16 1015.4 1015.2 11.8
18/01:00am 18.7 17.2 17.7 94 0.6 NNE 22 30 12 16 1015.1 1014.9 11.2
18/12:30am 19.0 18.1 17.8 93 0.7 NNE 19 24 10 13 1014.9 1014.7 10.2
18/12:00am 18.8 17.3 17.6 93 0.7 NNE 22 28 12 15 1014.9 1014.7 10.2
 
Date/Time
EST
Temp
°C
App
Temp
°C
Dew
Point
Rel
Hum
%
Delta-T
°C
Wind Press
QNH
hPa
Press
MSL
hPa
Rain
since 9 am
mm
Dir
 
Spd
km/h
Gust
km/h
Spd
kts
Gust
kts
17/11:30pm 18.9 18.4 17.7 93 0.7 NE 17 20 9 11 1014.8 1014.6 9.8
17/11:00pm 18.7 17.9 18.0 96 0.4 NE 19 26 10 14 1015.6 1015.4 9.4
17/10:30pm 19.0 18.9 17.8 93 0.7 NNE 15 20 8 11 1016.3 1016.1 9.0
17/10:00pm 19.0 18.0 18.0 94 0.6 NE 20 28 11 15 1015.9 1015.7 8.4
17/09:30pm 19.1 18.2 18.3 95 0.5 NE 20 28 11 15 1016.0 1015.8 8.4
17/09:00pm 19.3 18.4 18.3 94 0.6 NE 20 28 11 15 1016.2 1016.0 8.0
17/08:30pm 19.1 19.2 18.4 96 0.4 NNE 15 19 8 10 1015.9 1015.7 8.0
17/08:00pm 18.9 20.3 18.6 98 0.2 NNE 9 13 5 7 1016.2 1016.0 7.8
17/07:30pm 19.1 22.2 18.6 97 0.3 CALM 0 0 0 0 1016.6 1016.4 7.8
17/07:00pm 19.3 22.2 18.3 94 0.6 CALM 0 0 0 0 1016.7 1016.5 7.8
17/06:30pm 19.4 21.6 18.4 94 0.6 NE 4 13 2 7 1016.6 1016.4 7.4
17/06:00pm 19.4 21.5 18.2 93 0.7 SW 4 7 2 4 1016.6 1016.4 7.2
17/05:30pm 19.5 22.3 18.0 91 0.9 CALM 0 0 0 0 1016.5 1016.3 7.2
17/05:00pm 19.4 20.2 18.1 92 0.8 ENE 11 17 6 9 1016.0 1015.8 7.2
17/04:30pm 19.3 19.4 18.3 94 0.6 ENE 15 20 8 11 1015.5 1015.3 7.2
17/04:00pm 19.0 18.2 18.5 97 0.3 NE 20 28 11 15 1015.8 1015.6 7.2
17/03:30pm 18.7 18.5 18.4 98 0.2 NE 17 20 9 11 1016.1 1015.9 7.2
17/03:00pm 18.6 18.0 18.4 99 0.1 NE 19 24 10 13 1016.8 1016.6 6.8
17/02:30pm 18.4 17.7 18.2 99 0.1 NNE 19 22 10 12 1017.3 1017.2 6.4
17/02:00pm 18.0 17.9 17.8 99 0.1 NNE 15 20 8 11 1017.8 1017.7 6.2
17/01:30pm 17.9 17.4 17.7 99 0.1 NNE 17 20 9 11 1018.3 1018.2 5.4
17/01:00pm 17.5 17.2 17.3 99 0.1 NNE 15 19 8 10 1018.9 1018.8 4.4
17/12:30pm 17.1 17.0 16.9 99 0.1 ENE 13 17 7 9 1019.2 1019.1 3.0
17/12:00pm 17.0 16.4 16.7 98 0.2 NE 15 19 8 10 1019.8 1019.7 1.2
17/11:30am 16.8 16.0 16.2 96 0.4 ENE 15 19 8 10 1020.0 1019.9 0.4
17/11:00am 16.4 15.4 15.6 95 0.5 E 15 20 8 11 1020.3 1020.2 0.2
17/10:30am 16.1 15.4 15.3 95 0.5 E 13 17 7 9 1021.1 1021.0 0.2
17/10:00am 15.6 14.8 15.0 96 0.3 E 13 17 7 9 1021.5 1021.4 0.2
17/09:30am 15.3 14.4 14.8 97 0.3 E 13 20 7 11 1021.8 1021.7 0.2
17/09:00am 14.9 13.5 14.4 97 0.3 E 15 20 8 11 1021.6 1021.5 6.2
17/08:30am 15.0 14.7 14.5 97 0.3 ENE 9 13 5 7 1022.4 1022.3 5.4
17/08:00am 14.9 14.6 14.3 96 0.3 ENE 9 13 5 7 1022.4 1022.3 4.8
17/07:30am 14.7 14.6 13.9 95 0.5 ENE 7 11 4 6 1022.7 1022.5 4.2
17/07:00am 14.4 13.5 13.6 95 0.4 ENE 11 15 6 8 1022.1 1022.0 4.0
17/06:30am 14.3 12.9 13.3 94 0.6 ENE 13 17 7 9 1021.9 1021.8 3.8
17/06:00am 14.2 13.1 13.2 94 0.6 ESE 11 15 6 8 1021.5 1021.4 3.2
17/05:30am 14.3 13.9 13.0 92 0.7 ESE 7 11 4 6 1022.2 1022.1 2.6
17/05:00am 14.7 15.5 12.6 87 1.1 CALM 0 0 0 0 1022.7 1022.5 1.6
17/04:30am 14.8 15.6 12.5 86 1.3 CALM 0 0 0 0 1022.3 1022.2 1.0
17/04:00am 15.0 15.2 12.0 82 1.6 ESE 2 6 1 3 1022.1 1022.0 0.4
17/03:30am 15.1 14.6 11.9 81 1.7 ESE 6 7 3 4 1022.0 1021.9 0.4
17/03:00am 15.4 16.0 11.8 79 1.9 CALM 0 0 0 0 1022.6 1022.4 0.4
17/02:30am 15.4 14.6 11.8 79 2.0 E 7 7 4 4 1022.4 1022.3 0.4
17/02:00am 15.6 15.0 11.8 78 2.1 SSE 6 9 3 5 1022.9 1022.7 0.4
17/01:30am 15.7 13.9 10.9 73 2.6 SSE 11 15 6 8 1022.9 1022.7 0.4
17/01:00am 15.3 13.3 11.5 78 2.0 SSE 13 17 7 9 1022.4 1022.3 0.4
17/12:30am 16.0 13.6 10.1 68 3.1 S 13 17 7 9 1023.0 1022.8 0.2
17/12:00am 17.2 15.3 10.6 65 3.5 S 11 13 6 7 1023.8 1023.6 0.0
 
Date/Time
EST
Temp
°C
App
Temp
°C
Dew
Point
Rel
Hum
%
Delta-T
°C
Wind Press
QNH
hPa
Press
MSL
hPa
Rain
since 9 am
mm
Dir
 
Spd
km/h
Gust
km/h
Spd
kts
Gust
kts
16/11:30pm 17.1 14.6 11.2 68 3.2 S 15 17 8 9 1024.0 1023.8 0.0
16/11:00pm 18.1 14.9 10.0 59 4.3 SSW 17 20 9 11 1024.3 1024.1 0.0
16/10:30pm 18.7 15.5 9.8 56 4.7 S 17 22 9 12 1024.4 1024.2 0.0
16/10:00pm 18.6 17.6 10.9 61 4.2 S 7 9 4 5 1024.3 1024.1 0.0
16/09:30pm 18.7 17.3 11.0 61 4.2 SSW 9 13 5 7 1024.2 1024.0 0.0
16/09:00pm 18.7 16.6 11.0 61 4.2 S 13 15 7 8 1023.9 1023.7 0.0
16/08:30pm 19.9 17.3 9.5 51 5.5 SSW 13 17 7 9 1024.0 1023.8 0.0
16/08:00pm 20.5 17.0 8.8 47 6.2 SSW 17 22 9 12 1023.9 1023.7 0.0
16/07:30pm 21.0 17.1 8.6 45 6.5 SSW 19 24 10 13 1023.8 1023.6 0.0
16/07:00pm 21.4 17.5 9.3 46 6.5 SW 20 26 11 14 1023.9 1023.7 0.0
16/06:30pm 22.4 18.0 8.9 42 7.2 SW 22 28 12 15 1023.8 1023.6 0.0
16/06:00pm 23.0 18.3 9.4 42 7.3 WSW 24 28 13 15 1023.4 1023.2 0.0
16/05:30pm 24.0 20.0 8.4 37 8.4 WSW 19 24 10 13 1022.7 1022.5 0.0
16/05:00pm 24.4 20.8 8.4 36 8.6 W 17 20 9 11 1022.3 1022.2 0.0
16/04:30pm 24.6 22.4 9.3 38 8.3 W 11 15 6 8 1021.8 1021.7 0.0
16/04:00pm 25.0 21.6 9.3 37 8.6 SW 17 20 9 11 1021.5 1021.4 0.0
16/03:30pm 25.0 22.0 9.3 37 8.6 SSW 15 20 8 11 1021.5 1021.4 0.0
16/03:00pm 25.1 21.3 9.0 36 8.7 SSW 19 24 10 13 1021.3 1021.2 0.0
16/02:30pm 25.3 22.0 9.6 37 8.6 S 17 30 9 16 1021.4 1021.3 0.0
16/02:00pm 24.9 21.7 10.0 39 8.2 SSW 17 24 9 13 1022.0 1021.9 0.0
16/01:30pm 24.5 21.2 10.8 42 7.7 SSW 19 28 10 15 1022.0 1021.9 0.0
16/01:00pm 24.5 21.6 11.1 43 7.5 SW 17 26 9 14 1022.7 1022.5 0.0
16/12:30pm 23.5 20.7 11.2 46 6.9 SSW 17 30 9 16 1023.1 1022.9 0.0
16/12:00pm 23.4 20.9 11.1 46 6.9 S 15 20 8 11 1023.8 1023.6 0.0
16/11:30am 23.1 20.8 11.8 49 6.4 SSW 15 20 8 11 1024.0 1023.8 0.0
16/11:00am 21.9 19.4 12.2 54 5.5 SSW 17 24 9 13 1024.4 1024.2 0.0
16/10:30am 22.1 20.4 12.6 55 5.4 S 13 17 7 9 1024.6 1024.4 0.0
16/10:00am 20.5 18.2 13.0 62 4.3 S 17 20 9 11 1024.7 1024.5 0.0
16/09:30am 19.7 17.4 12.9 65 3.9 S 17 20 9 11 1024.7 1024.5 0.0
16/09:00am 18.5 16.1 12.7 69 3.2 S 17 22 9 12 1024.4 1024.2 0.0
16/08:30am 17.4 14.8 11.9 70 3.0 S 17 20 9 11 1024.4 1024.2 0.0
16/08:00am 16.0 13.6 11.4 74 2.5 SW 15 19 8 10 1024.1 1023.9 0.0
16/07:30am 14.6 13.1 10.6 77 2.1 W 9 11 5 6 1023.8 1023.6 0.0
16/07:00am 13.7 11.3 10.1 79 1.9 WSW 13 15 7 8 1023.3 1023.1 0.0
16/06:30am 13.5 11.4 9.6 77 2.0 WSW 11 13 6 7 1022.8 1022.6 0.0
16/06:00am 14.0 12.2 9.6 75 2.3 WSW 9 11 5 6 1022.3 1022.2 0.0
16/05:30am 14.6 13.2 9.6 72 2.6 W 7 9 4 5 1022.2 1022.1 0.0

Other Formats:

Comma delimited format used in spreadsheet applications
http://www.bom.gov.au/fwo/IDN60801/IDN60801.94702.axf

JavaScript Object Notation format (JSON) in row-major order
http://www.bom.gov.au/fwo/IDN60801/IDN60801.94702.json